GWRLD EGGW-LFRS
Flight info
| Callsign | GWRLD |
|---|---|
| Flight time | 0h 56m |
| Altitude | 28000 |
| Route | RODNI N27 ICTAM Q63 CPT UN859 LGL UT176 ROLEN A5 VALAX |
| Aircraft | CL60/M-SBDE1E2E3FGHIJ1J4J5J7M3RWXYZ/LB1V1D1 |
Departure
| Time | 2026-04-30 18:03 |
|---|---|
| Airport | London Luton Airport (EGGW) |
Arrival
| Time | 2026-04-30 19:00 |
|---|---|
| Airport | Nantes Atlantique Airport (LFRS) |
| Time | Latitude | Longitude | Altitude | Speed | Heading |
|---|---|---|---|---|---|
| 2026-04-30 17:43 | 51.87747 | -0.37980 | 522 ft | 0 kts | 215° |
| 2026-04-30 18:00 | 51.87780 | -0.37841 | 526 ft | 13 kts | 114° |
| 2026-04-30 18:00 | 51.87584 | -0.37453 | 525 ft | 16 kts | 182° |
| 2026-04-30 18:01 | 51.87474 | -0.37723 | 526 ft | 19 kts | 255° |
| 2026-04-30 18:02 | 51.87266 | -0.38091 | 510 ft | 10 kts | 135° |
| 2026-04-30 18:02 | 51.87506 | -0.36613 | 654 ft | 149 kts | 73° |
| 2026-04-30 18:03 | 51.88548 | -0.30733 | 2720 ft | 198 kts | 80° |
| 2026-04-30 18:04 | 51.89070 | -0.23903 | 4439 ft | 207 kts | 126° |
| 2026-04-30 18:05 | 51.83919 | -0.26068 | 7104 ft | 283 kts | 247° |
| 2026-04-30 18:06 | 51.82069 | -0.38778 | 9712 ft | 295 kts | 252° |
| 2026-04-30 18:07 | 51.79914 | -0.53056 | 12299 ft | 369 kts | 253° |
| 2026-04-30 18:08 | 51.78057 | -0.65341 | 14475 ft | 381 kts | 252° |
| 2026-04-30 18:09 | 51.74449 | -0.81484 | 17912 ft | 387 kts | 225° |
| 2026-04-30 18:10 | 51.66744 | -0.93940 | 21801 ft | 402 kts | 220° |
| 2026-04-30 18:11 | 51.58686 | -1.06850 | 25279 ft | 416 kts | 220° |
| 2026-04-30 18:11 | 51.52235 | -1.16521 | 27364 ft | 422 kts | 208° |
| 2026-04-30 18:12 | 51.43730 | -1.18418 | 28182 ft | 434 kts | 161° |
| 2026-04-30 18:13 | 51.38142 | -1.14400 | 28158 ft | 437 kts | 155° |
| 2026-04-30 18:14 | 51.24426 | -1.04213 | 28164 ft | 433 kts | 155° |
| 2026-04-30 18:15 | 51.07961 | -0.92075 | 28163 ft | 433 kts | 154° |
| 2026-04-30 18:16 | 50.96997 | -0.84046 | 28158 ft | 433 kts | 154° |
| 2026-04-30 18:17 | 50.91479 | -0.80022 | 28153 ft | 434 kts | 154° |
| 2026-04-30 18:18 | 50.83353 | -0.73556 | 28155 ft | 435 kts | 147° |
| 2026-04-30 18:18 | 50.78245 | -0.68321 | 28150 ft | 435 kts | 147° |
| 2026-04-30 18:19 | 50.73136 | -0.63113 | 28151 ft | 435 kts | 147° |
| 2026-04-30 18:19 | 50.68038 | -0.57934 | 28150 ft | 435 kts | 146° |
| 2026-04-30 18:20 | 50.62907 | -0.52738 | 28149 ft | 435 kts | 146° |
| 2026-04-30 18:20 | 50.57798 | -0.47580 | 28147 ft | 435 kts | 146° |
| 2026-04-30 18:21 | 50.52706 | -0.42454 | 28149 ft | 436 kts | 146° |
| 2026-04-30 18:21 | 50.47534 | -0.37263 | 28145 ft | 436 kts | 146° |
| 2026-04-30 18:22 | 50.42395 | -0.32119 | 28146 ft | 436 kts | 147° |
| 2026-04-30 18:22 | 50.34674 | -0.24417 | 28145 ft | 436 kts | 147° |
| 2026-04-30 18:23 | 50.29573 | -0.19345 | 28140 ft | 436 kts | 147° |
| 2026-04-30 18:23 | 50.24425 | -0.14241 | 28139 ft | 435 kts | 147° |
| 2026-04-30 18:24 | 50.16735 | -0.06641 | 28142 ft | 435 kts | 147° |
| 2026-04-30 18:25 | 50.11585 | -0.01574 | 28134 ft | 436 kts | 148° |
| 2026-04-30 18:25 | 50.05883 | 0.01656 | 28129 ft | 439 kts | 164° |
| 2026-04-30 18:25 | 50.02915 | 0.02815 | 28139 ft | 438 kts | 164° |
| 2026-04-30 18:26 | 49.93991 | 0.06320 | 28132 ft | 439 kts | 164° |
| 2026-04-30 18:27 | 49.84883 | 0.08132 | 28123 ft | 443 kts | 175° |
| 2026-04-30 18:28 | 49.75593 | 0.08665 | 28124 ft | 447 kts | 175° |
| 2026-04-30 18:28 | 49.66197 | 0.09217 | 28116 ft | 449 kts | 175° |
| 2026-04-30 18:29 | 49.53590 | 0.09968 | 28112 ft | 452 kts | 175° |
| 2026-04-30 18:30 | 49.40952 | 0.10727 | 28110 ft | 454 kts | 175° |
| 2026-04-30 18:31 | 49.31441 | 0.11299 | 28108 ft | 457 kts | 175° |
| 2026-04-30 18:32 | 49.21857 | 0.11874 | 28111 ft | 457 kts | 176° |
| 2026-04-30 18:33 | 49.12306 | 0.12446 | 28105 ft | 447 kts | 176° |
| 2026-04-30 18:33 | 49.03127 | 0.12993 | 28107 ft | 437 kts | 176° |
| 2026-04-30 18:34 | 48.93956 | 0.13541 | 28098 ft | 439 kts | 176° |
| 2026-04-30 18:35 | 48.87799 | 0.13908 | 28103 ft | 440 kts | 176° |
| 2026-04-30 18:35 | 48.81644 | 0.14272 | 28104 ft | 440 kts | 176° |
| 2026-04-30 18:36 | 48.72473 | 0.14815 | 28108 ft | 439 kts | 176° |
| 2026-04-30 18:37 | 48.63312 | 0.15353 | 28107 ft | 438 kts | 176° |
| 2026-04-30 18:37 | 48.60227 | 0.15106 | 28116 ft | 441 kts | 188° |
| 2026-04-30 18:37 | 48.57298 | 0.13778 | 28113 ft | 445 kts | 202° |
| 2026-04-30 18:37 | 48.54623 | 0.11334 | 28109 ft | 448 kts | 216° |
| 2026-04-30 18:38 | 48.52204 | 0.08280 | 28103 ft | 449 kts | 219° |
| 2026-04-30 18:38 | 48.47437 | 0.02191 | 28110 ft | 449 kts | 219° |
| 2026-04-30 18:39 | 48.42626 | -0.03931 | 28110 ft | 449 kts | 219° |
| 2026-04-30 18:39 | 48.37830 | -0.10017 | 28114 ft | 449 kts | 219° |
| 2026-04-30 18:40 | 48.33049 | -0.16069 | 28109 ft | 449 kts | 219° |
| 2026-04-30 18:40 | 48.28233 | -0.22148 | 28114 ft | 449 kts | 219° |
| 2026-04-30 18:40 | 48.25841 | -0.25162 | 27871 ft | 453 kts | 219° |
| 2026-04-30 18:41 | 48.23408 | -0.28222 | 27429 ft | 448 kts | 219° |
| 2026-04-30 18:41 | 48.21039 | -0.31200 | 26984 ft | 443 kts | 219° |
| 2026-04-30 18:41 | 48.18668 | -0.34176 | 26531 ft | 438 kts | 219° |
| 2026-04-30 18:41 | 48.16346 | -0.37086 | 25939 ft | 435 kts | 219° |
| 2026-04-30 18:42 | 48.14038 | -0.39975 | 25205 ft | 430 kts | 219° |
| 2026-04-30 18:42 | 48.09498 | -0.45646 | 23698 ft | 419 kts | 219° |
| 2026-04-30 18:42 | 48.07263 | -0.48434 | 22948 ft | 414 kts | 219° |
| 2026-04-30 18:45 | 47.87176 | -0.73344 | 17806 ft | 340 kts | 217° |
| 2026-04-30 18:45 | 47.85370 | -0.75570 | 17348 ft | 335 kts | 217° |
| 2026-04-30 18:45 | 47.83576 | -0.77780 | 16911 ft | 332 kts | 217° |
| 2026-04-30 18:46 | 47.81793 | -0.79973 | 16465 ft | 332 kts | 217° |
| 2026-04-30 18:46 | 47.79999 | -0.82178 | 16023 ft | 330 kts | 217° |
| 2026-04-30 18:46 | 47.78243 | -0.84335 | 15584 ft | 327 kts | 217° |
| 2026-04-30 18:46 | 47.76494 | -0.86482 | 15156 ft | 325 kts | 216° |
| 2026-04-30 18:47 | 47.74770 | -0.88596 | 14730 ft | 322 kts | 216° |
| 2026-04-30 18:47 | 47.73042 | -0.90712 | 14297 ft | 320 kts | 216° |
| 2026-04-30 18:47 | 47.71307 | -0.92827 | 13871 ft | 318 kts | 216° |
| 2026-04-30 18:47 | 47.69594 | -0.94913 | 13447 ft | 316 kts | 216° |
| 2026-04-30 18:48 | 47.67899 | -0.96975 | 13020 ft | 313 kts | 216° |
| 2026-04-30 18:48 | 47.66209 | -0.99031 | 12607 ft | 310 kts | 216° |
| 2026-04-30 18:48 | 47.64554 | -1.01041 | 12192 ft | 308 kts | 216° |
| 2026-04-30 18:48 | 47.62885 | -1.03066 | 11786 ft | 305 kts | 216° |
| 2026-04-30 18:49 | 47.61264 | -1.05033 | 11386 ft | 302 kts | 216° |
| 2026-04-30 18:49 | 47.59628 | -1.07015 | 10987 ft | 300 kts | 216° |
| 2026-04-30 18:49 | 47.58029 | -1.08952 | 10592 ft | 297 kts | 216° |
| 2026-04-30 18:49 | 47.56430 | -1.10887 | 10205 ft | 295 kts | 216° |
| 2026-04-30 18:50 | 47.54853 | -1.12860 | 9808 ft | 291 kts | 218° |
| 2026-04-30 18:50 | 47.53326 | -1.14793 | 9423 ft | 286 kts | 218° |
| 2026-04-30 18:50 | 47.51815 | -1.16705 | 9044 ft | 280 kts | 218° |
| 2026-04-30 18:50 | 47.50346 | -1.18559 | 8671 ft | 275 kts | 218° |
| 2026-04-30 18:51 | 47.48893 | -1.20392 | 8308 ft | 271 kts | 218° |
| 2026-04-30 18:51 | 47.47453 | -1.22207 | 7947 ft | 272 kts | 218° |
| 2026-04-30 18:51 | 47.46005 | -1.24029 | 7583 ft | 272 kts | 218° |
| 2026-04-30 18:51 | 47.44571 | -1.25834 | 7217 ft | 272 kts | 218° |
| 2026-04-30 18:52 | 47.43127 | -1.27655 | 6846 ft | 271 kts | 218° |
| 2026-04-30 18:52 | 47.41676 | -1.29481 | 6221 ft | 276 kts | 219° |
| 2026-04-30 18:52 | 47.40211 | -1.31330 | 5645 ft | 275 kts | 219° |
| 2026-04-30 18:52 | 47.38784 | -1.33118 | 5029 ft | 267 kts | 219° |
| 2026-04-30 18:53 | 47.37385 | -1.34850 | 4647 ft | 253 kts | 218° |
| 2026-04-30 18:53 | 47.36051 | -1.36522 | 4236 ft | 244 kts | 219° |
| 2026-04-30 18:53 | 47.34780 | -1.38129 | 3770 ft | 237 kts | 219° |
| 2026-04-30 18:53 | 47.33550 | -1.39663 | 3317 ft | 225 kts | 219° |
| 2026-04-30 18:54 | 47.32409 | -1.41107 | 3103 ft | 200 kts | 219° |
| 2026-04-30 18:54 | 47.31405 | -1.42402 | 3093 ft | 188 kts | 219° |
| 2026-04-30 18:54 | 47.30396 | -1.43704 | 3040 ft | 192 kts | 219° |
| 2026-04-30 18:54 | 47.29387 | -1.44982 | 3008 ft | 192 kts | 219° |
| 2026-04-30 18:55 | 47.28357 | -1.46282 | 3005 ft | 192 kts | 219° |
| 2026-04-30 18:55 | 47.26475 | -1.48666 | 2691 ft | 165 kts | 219° |
| 2026-04-30 18:55 | 47.25613 | -1.49755 | 2466 ft | 159 kts | 219° |
| 2026-04-30 18:56 | 47.23942 | -1.51864 | 2021 ft | 159 kts | 219° |
| 2026-04-30 18:56 | 47.23108 | -1.52919 | 1838 ft | 157 kts | 219° |
| 2026-04-30 18:56 | 47.22277 | -1.53967 | 1600 ft | 148 kts | 220° |
| 2026-04-30 18:57 | 47.20872 | -1.55743 | 1227 ft | 123 kts | 220° |
| 2026-04-30 18:57 | 47.20228 | -1.56553 | 1073 ft | 122 kts | 220° |
| 2026-04-30 18:57 | 47.19576 | -1.57362 | 868 ft | 120 kts | 219° |
| 2026-04-30 18:58 | 47.18240 | -1.58795 | 590 ft | 119 kts | 212° |
| 2026-04-30 18:58 | 47.17515 | -1.59391 | 427 ft | 119 kts | 209° |
| 2026-04-30 18:58 | 47.16772 | -1.59962 | 239 ft | 119 kts | 209° |
| 2026-04-30 18:59 | 47.15477 | -1.60952 | 86 ft | 68 kts | 207° |
| 2026-04-30 19:00 | 47.14827 | -1.61271 | 84 ft | 15 kts | 73° |
| 2026-04-30 19:00 | 47.14867 | -1.61150 | 86 ft | 13 kts | 32° |
| 2026-04-30 19:00 | 47.15086 | -1.60983 | 86 ft | 21 kts | 27° |
| 2026-04-30 19:01 | 47.15375 | -1.60762 | 85 ft | 18 kts | 28° |
| 2026-04-30 19:01 | 47.15462 | -1.60695 | 84 ft | 15 kts | 27° |
| 2026-04-30 19:02 | 47.15709 | -1.60506 | 83 ft | 22 kts | 27° |
| 2026-04-30 19:02 | 47.15992 | -1.60292 | 84 ft | 22 kts | 28° |
| 2026-04-30 19:03 | 47.16094 | -1.60171 | 86 ft | 8 kts | 49° |
| 2026-04-30 19:03 | 47.16110 | -1.60132 | 87 ft | 0 kts | 120° |
| 2026-04-30 19:04 | 47.16111 | -1.60132 | 87 ft | 0 kts | 144° |
| 2026-04-30 19:04 | 47.16105 | -1.60134 | 87 ft | 0 kts | 198° |